sensor_id;sensor_type;location;lat;lon;timestamp;P1;durP1;ratioP1;P2;durP2;ratioP2
25549;SDS011;13444;50.562;7.262;2022-12-29T00:02:15;3.72;;;1.23;;
25549;SDS011;13444;50.562;7.262;2022-12-29T00:04:42;1.10;;;0.90;;
25549;SDS011;13444;50.562;7.262;2022-12-29T00:07:07;2.08;;;1.20;;
25549;SDS011;13444;50.562;7.262;2022-12-29T00:09:33;2.00;;;1.27;;
25549;SDS011;13444;50.562;7.262;2022-12-29T00:12:00;1.40;;;1.08;;
25549;SDS011;13444;50.562;7.262;2022-12-29T00:14:26;3.53;;;1.10;;
25549;SDS011;13444;50.562;7.262;2022-12-29T00:17:10;1.23;;;1.00;;
25549;SDS011;13444;50.562;7.262;2022-12-29T00:19:36;1.80;;;1.50;;
25549;SDS011;13444;50.562;7.262;2022-12-29T00:22:20;1.42;;;1.08;;
25549;SDS011;13444;50.562;7.262;2022-12-29T00:25:05;2.08;;;1.45;;
25549;SDS011;13444;50.562;7.262;2022-12-29T00:27:33;2.88;;;1.67;;
25549;SDS011;13444;50.562;7.262;2022-12-29T00:30:21;2.42;;;1.98;;
25549;SDS011;13444;50.562;7.262;2022-12-29T00:33:13;3.90;;;2.00;;
25549;SDS011;13444;50.562;7.262;2022-12-29T00:36:03;3.00;;;1.98;;
25549;SDS011;13444;50.562;7.262;2022-12-29T00:38:31;2.97;;;2.08;;
25549;SDS011;13444;50.562;7.262;2022-12-29T00:41:18;3.35;;;1.80;;
25549;SDS011;13444;50.562;7.262;2022-12-29T00:44:02;5.20;;;2.40;;
25549;SDS011;13444;50.562;7.262;2022-12-29T00:46:34;3.67;;;2.03;;
25549;SDS011;13444;50.562;7.262;2022-12-29T00:49:04;5.57;;;1.95;;
25549;SDS011;13444;50.562;7.262;2022-12-29T00:51:50;3.08;;;1.50;;
25549;SDS011;13444;50.562;7.262;2022-12-29T00:54:16;4.22;;;1.65;;
25549;SDS011;13444;50.562;7.262;2022-12-29T00:56:41;4.68;;;1.98;;
25549;SDS011;13444;50.562;7.262;2022-12-29T00:59:08;4.03;;;2.13;;
25549;SDS011;13444;50.562;7.262;2022-12-29T01:01:35;4.28;;;1.92;;
25549;SDS011;13444;50.562;7.262;2022-12-29T01:04:02;4.75;;;1.77;;
25549;SDS011;13444;50.562;7.262;2022-12-29T01:06:28;2.47;;;1.67;;
25549;SDS011;13444;50.562;7.262;2022-12-29T01:08:54;4.18;;;2.00;;
25549;SDS011;13444;50.562;7.262;2022-12-29T01:11:38;1.75;;;1.45;;
25549;SDS011;13444;50.562;7.262;2022-12-29T01:14:04;2.17;;;1.40;;
25549;SDS011;13444;50.562;7.262;2022-12-29T01:16:30;3.05;;;1.65;;
25549;SDS011;13444;50.562;7.262;2022-12-29T01:18:56;2.45;;;1.58;;
25549;SDS011;13444;50.562;7.262;2022-12-29T01:21:22;2.17;;;1.50;;
25549;SDS011;13444;50.562;7.262;2022-12-29T01:23:47;2.60;;;1.58;;
25549;SDS011;13444;50.562;7.262;2022-12-29T01:26:13;1.63;;;0.95;;
25549;SDS011;13444;50.562;7.262;2022-12-29T01:28:40;2.33;;;0.70;;
25549;SDS011;13444;50.562;7.262;2022-12-29T01:31:10;2.00;;;0.95;;
25549;SDS011;13444;50.562;7.262;2022-12-29T01:33:36;1.48;;;0.70;;
25549;SDS011;13444;50.562;7.262;2022-12-29T01:36:07;1.42;;;0.90;;
25549;SDS011;13444;50.562;7.262;2022-12-29T01:38:34;0.90;;;0.80;;
25549;SDS011;13444;50.562;7.262;2022-12-29T01:41:01;1.17;;;0.80;;
25549;SDS011;13444;50.562;7.262;2022-12-29T01:43:50;1.15;;;0.98;;
25549;SDS011;13444;50.562;7.262;2022-12-29T01:46:20;2.25;;;1.30;;
25549;SDS011;13444;50.562;7.262;2022-12-29T01:48:52;1.38;;;1.05;;
25549;SDS011;13444;50.562;7.262;2022-12-29T01:51:27;0.80;;;0.80;;
25549;SDS011;13444;50.562;7.262;2022-12-29T01:53:54;2.05;;;0.90;;
25549;SDS011;13444;50.562;7.262;2022-12-29T01:56:23;2.15;;;0.70;;
25549;SDS011;13444;50.562;7.262;2022-12-29T01:58:51;1.33;;;0.55;;
25549;SDS011;13444;50.562;7.262;2022-12-29T02:01:24;0.50;;;0.50;;
25549;SDS011;13444;50.562;7.262;2022-12-29T02:03:50;0.68;;;0.60;;
25549;SDS011;13444;50.562;7.262;2022-12-29T02:08:47;2.05;;;0.70;;
25549;SDS011;13444;50.562;7.262;2022-12-29T02:11:14;1.60;;;0.80;;
25549;SDS011;13444;50.562;7.262;2022-12-29T02:13:41;1.77;;;0.70;;
25549;SDS011;13444;50.562;7.262;2022-12-29T02:19:27;0.80;;;0.68;;
25549;SDS011;13444;50.562;7.262;2022-12-29T02:28:11;1.05;;;0.70;;
25549;SDS011;13444;50.562;7.262;2022-12-29T02:31:28;1.02;;;0.50;;
25549;SDS011;13444;50.562;7.262;2022-12-29T02:36:47;3.60;;;0.68;;
25549;SDS011;13444;50.562;7.262;2022-12-29T02:45:05;1.13;;;0.60;;
25549;SDS011;13444;50.562;7.262;2022-12-29T02:47:47;0.57;;;0.57;;
25549;SDS011;13444;50.562;7.262;2022-12-29T02:52:54;0.82;;;0.60;;
25549;SDS011;13444;50.562;7.262;2022-12-29T02:55:24;0.77;;;0.68;;
25549;SDS011;13444;50.562;7.262;2022-12-29T02:57:49;1.30;;;0.80;;
25549;SDS011;13444;50.562;7.262;2022-12-29T03:00:48;1.73;;;1.10;;
25549;SDS011;13444;50.562;7.262;2022-12-29T03:06:05;1.40;;;0.60;;
25549;SDS011;13444;50.562;7.262;2022-12-29T03:11:59;0.90;;;0.65;;
25549;SDS011;13444;50.562;7.262;2022-12-29T03:17:35;2.67;;;0.70;;
25549;SDS011;13444;50.562;7.262;2022-12-29T03:20:12;1.05;;;0.65;;
25549;SDS011;13444;50.562;7.262;2022-12-29T03:22:43;3.20;;;0.93;;
25549;SDS011;13444;50.562;7.262;2022-12-29T03:25:14;2.22;;;0.85;;
25549;SDS011;13444;50.562;7.262;2022-12-29T03:27:56;1.77;;;1.05;;
25549;SDS011;13444;50.562;7.262;2022-12-29T03:30:25;2.60;;;0.85;;
25549;SDS011;13444;50.562;7.262;2022-12-29T03:32:58;2.00;;;0.82;;
25549;SDS011;13444;50.562;7.262;2022-12-29T03:35:28;0.88;;;0.80;;
25549;SDS011;13444;50.562;7.262;2022-12-29T03:40:32;0.73;;;0.70;;
25549;SDS011;13444;50.562;7.262;2022-12-29T03:42:59;1.52;;;0.70;;
25549;SDS011;13444;50.562;7.262;2022-12-29T03:45:27;0.80;;;0.80;;
25549;SDS011;13444;50.562;7.262;2022-12-29T03:47:53;2.55;;;0.88;;
25549;SDS011;13444;50.562;7.262;2022-12-29T03:50:18;2.00;;;1.08;;
25549;SDS011;13444;50.562;7.262;2022-12-29T03:52:44;3.05;;;1.38;;
25549;SDS011;13444;50.562;7.262;2022-12-29T03:55:09;1.60;;;0.93;;
25549;SDS011;13444;50.562;7.262;2022-12-29T03:57:35;1.45;;;1.10;;
25549;SDS011;13444;50.562;7.262;2022-12-29T04:00:00;0.80;;;0.80;;
25549;SDS011;13444;50.562;7.262;2022-12-29T04:02:26;1.95;;;1.10;;
25549;SDS011;13444;50.562;7.262;2022-12-29T04:04:52;1.23;;;0.73;;
25549;SDS011;13444;50.562;7.262;2022-12-29T04:07:17;1.27;;;0.90;;
25549;SDS011;13444;50.562;7.262;2022-12-29T04:09:43;2.67;;;0.90;;
25549;SDS011;13444;50.562;7.262;2022-12-29T04:12:08;0.70;;;0.70;;
25549;SDS011;13444;50.562;7.262;2022-12-29T04:14:34;1.17;;;0.93;;
25549;SDS011;13444;50.562;7.262;2022-12-29T04:16:59;1.17;;;0.80;;
25549;SDS011;13444;50.562;7.262;2022-12-29T04:19:25;0.80;;;0.75;;
25549;SDS011;13444;50.562;7.262;2022-12-29T04:21:50;1.20;;;0.73;;
25549;SDS011;13444;50.562;7.262;2022-12-29T04:24:16;0.80;;;0.52;;
25549;SDS011;13444;50.562;7.262;2022-12-29T04:26:41;2.30;;;0.73;;
25549;SDS011;13444;50.562;7.262;2022-12-29T04:29:07;0.55;;;0.55;;
25549;SDS011;13444;50.562;7.262;2022-12-29T04:31:32;0.90;;;0.60;;
25549;SDS011;13444;50.562;7.262;2022-12-29T04:33:58;2.08;;;0.90;;
25549;SDS011;13444;50.562;7.262;2022-12-29T04:36:24;1.02;;;0.80;;
25549;SDS011;13444;50.562;7.262;2022-12-29T04:38:50;1.08;;;0.70;;
25549;SDS011;13444;50.562;7.262;2022-12-29T04:41:16;2.58;;;0.80;;
25549;SDS011;13444;50.562;7.262;2022-12-29T04:43:41;2.30;;;0.60;;
25549;SDS011;13444;50.562;7.262;2022-12-29T04:46:07;3.15;;;0.70;;
25549;SDS011;13444;50.562;7.262;2022-12-29T04:48:32;0.70;;;0.70;;
25549;SDS011;13444;50.562;7.262;2022-12-29T04:50:58;1.75;;;1.13;;
25549;SDS011;13444;50.562;7.262;2022-12-29T04:53:23;0.60;;;0.60;;
25549;SDS011;13444;50.562;7.262;2022-12-29T04:55:52;1.25;;;0.60;;
25549;SDS011;13444;50.562;7.262;2022-12-29T04:58:18;0.68;;;0.68;;
25549;SDS011;13444;50.562;7.262;2022-12-29T05:00:44;1.42;;;0.60;;
25549;SDS011;13444;50.562;7.262;2022-12-29T05:03:10;0.93;;;0.65;;
25549;SDS011;13444;50.562;7.262;2022-12-29T05:05:36;1.48;;;0.63;;
25549;SDS011;13444;50.562;7.262;2022-12-29T05:08:01;0.90;;;0.80;;
25549;SDS011;13444;50.562;7.262;2022-12-29T05:10:27;0.80;;;0.50;;
25549;SDS011;13444;50.562;7.262;2022-12-29T05:12:52;1.52;;;0.80;;
25549;SDS011;13444;50.562;7.262;2022-12-29T05:15:18;1.27;;;1.08;;
25549;SDS011;13444;50.562;7.262;2022-12-29T05:17:44;1.17;;;1.02;;
25549;SDS011;13444;50.562;7.262;2022-12-29T05:20:09;3.53;;;1.15;;
25549;SDS011;13444;50.562;7.262;2022-12-29T05:22:35;1.90;;;1.52;;
25549;SDS011;13444;50.562;7.262;2022-12-29T05:25:01;1.35;;;1.20;;
25549;SDS011;13444;50.562;7.262;2022-12-29T05:27:27;1.95;;;1.02;;
25549;SDS011;13444;50.562;7.262;2022-12-29T05:29:53;1.65;;;1.00;;
25549;SDS011;13444;50.562;7.262;2022-12-29T05:32:18;2.53;;;0.88;;
25549;SDS011;13444;50.562;7.262;2022-12-29T05:34:44;1.75;;;1.00;;
25549;SDS011;13444;50.562;7.262;2022-12-29T05:37:09;1.15;;;1.00;;
25549;SDS011;13444;50.562;7.262;2022-12-29T05:39:35;1.27;;;1.17;;
25549;SDS011;13444;50.562;7.262;2022-12-29T05:42:00;1.40;;;0.80;;
25549;SDS011;13444;50.562;7.262;2022-12-29T05:44:26;4.07;;;0.80;;
25549;SDS011;13444;50.562;7.262;2022-12-29T05:46:51;2.65;;;0.95;;
25549;SDS011;13444;50.562;7.262;2022-12-29T05:49:17;0.85;;;0.80;;
25549;SDS011;13444;50.562;7.262;2022-12-29T05:51:42;2.72;;;1.00;;
25549;SDS011;13444;50.562;7.262;2022-12-29T05:54:08;1.63;;;1.02;;
25549;SDS011;13444;50.562;7.262;2022-12-29T05:56:33;1.55;;;0.80;;
25549;SDS011;13444;50.562;7.262;2022-12-29T05:58:59;0.90;;;0.80;;
25549;SDS011;13444;50.562;7.262;2022-12-29T06:01:25;1.55;;;0.90;;
25549;SDS011;13444;50.562;7.262;2022-12-29T06:03:50;1.52;;;0.82;;
25549;SDS011;13444;50.562;7.262;2022-12-29T06:06:16;1.25;;;0.70;;
25549;SDS011;13444;50.562;7.262;2022-12-29T06:08:41;0.90;;;0.80;;
25549;SDS011;13444;50.562;7.262;2022-12-29T06:11:07;4.80;;;0.85;;
25549;SDS011;13444;50.562;7.262;2022-12-29T06:13:33;1.35;;;0.93;;
25549;SDS011;13444;50.562;7.262;2022-12-29T06:15:58;0.82;;;0.80;;
25549;SDS011;13444;50.562;7.262;2022-12-29T06:18:24;1.42;;;0.93;;
25549;SDS011;13444;50.562;7.262;2022-12-29T06:20:49;1.23;;;0.73;;
25549;SDS011;13444;50.562;7.262;2022-12-29T06:23:15;1.42;;;0.60;;
25549;SDS011;13444;50.562;7.262;2022-12-29T06:25:41;2.25;;;0.88;;
25549;SDS011;13444;50.562;7.262;2022-12-29T06:28:06;1.58;;;0.75;;
25549;SDS011;13444;50.562;7.262;2022-12-29T06:30:32;2.08;;;0.82;;
25549;SDS011;13444;50.562;7.262;2022-12-29T06:32:58;1.33;;;0.90;;
25549;SDS011;13444;50.562;7.262;2022-12-29T06:35:24;1.38;;;0.80;;
25549;SDS011;13444;50.562;7.262;2022-12-29T06:37:50;1.45;;;1.02;;
25549;SDS011;13444;50.562;7.262;2022-12-29T06:40:15;1.55;;;1.10;;
25549;SDS011;13444;50.562;7.262;2022-12-29T06:42:41;1.80;;;0.90;;
25549;SDS011;13444;50.562;7.262;2022-12-29T06:45:07;1.05;;;0.95;;
25549;SDS011;13444;50.562;7.262;2022-12-29T06:47:33;2.30;;;0.90;;
25549;SDS011;13444;50.562;7.262;2022-12-29T06:49:59;1.83;;;0.80;;
25549;SDS011;13444;50.562;7.262;2022-12-29T06:52:25;2.00;;;1.02;;
25549;SDS011;13444;50.562;7.262;2022-12-29T06:54:51;2.70;;;1.52;;
25549;SDS011;13444;50.562;7.262;2022-12-29T06:57:16;3.55;;;1.20;;
25549;SDS011;13444;50.562;7.262;2022-12-29T06:59:42;2.58;;;1.50;;
25549;SDS011;13444;50.562;7.262;2022-12-29T07:02:09;1.20;;;0.90;;
25549;SDS011;13444;50.562;7.262;2022-12-29T07:04:35;2.45;;;0.90;;
25549;SDS011;13444;50.562;7.262;2022-12-29T07:07:01;2.25;;;0.90;;
25549;SDS011;13444;50.562;7.262;2022-12-29T07:09:27;1.50;;;0.63;;
25549;SDS011;13444;50.562;7.262;2022-12-29T07:11:52;0.80;;;0.60;;
25549;SDS011;13444;50.562;7.262;2022-12-29T07:14:18;0.43;;;0.40;;
25549;SDS011;13444;50.562;7.262;2022-12-29T07:16:43;0.82;;;0.40;;
25549;SDS011;13444;50.562;7.262;2022-12-29T07:19:09;0.70;;;0.50;;
25549;SDS011;13444;50.562;7.262;2022-12-29T07:21:34;1.90;;;0.40;;
25549;SDS011;13444;50.562;7.262;2022-12-29T07:24:00;2.55;;;0.68;;
25549;SDS011;13444;50.562;7.262;2022-12-29T07:26:25;1.25;;;0.50;;
25549;SDS011;13444;50.562;7.262;2022-12-29T07:28:52;0.88;;;0.50;;
25549;SDS011;13444;50.562;7.262;2022-12-29T07:31:18;2.30;;;0.55;;
25549;SDS011;13444;50.562;7.262;2022-12-29T07:33:46;1.65;;;0.47;;
25549;SDS011;13444;50.562;7.262;2022-12-29T07:36:12;1.23;;;0.50;;
25549;SDS011;13444;50.562;7.262;2022-12-29T07:38:39;2.22;;;0.50;;
25549;SDS011;13444;50.562;7.262;2022-12-29T07:41:05;1.58;;;0.60;;
25549;SDS011;13444;50.562;7.262;2022-12-29T07:43:30;1.42;;;0.77;;
25549;SDS011;13444;50.562;7.262;2022-12-29T07:45:56;1.48;;;0.60;;
25549;SDS011;13444;50.562;7.262;2022-12-29T07:48:21;0.70;;;0.70;;
25549;SDS011;13444;50.562;7.262;2022-12-29T07:50:47;1.63;;;0.77;;
25549;SDS011;13444;50.562;7.262;2022-12-29T07:53:13;3.08;;;0.47;;
25549;SDS011;13444;50.562;7.262;2022-12-29T07:55:39;2.33;;;0.88;;
25549;SDS011;13444;50.562;7.262;2022-12-29T07:58:05;0.80;;;0.40;;
25549;SDS011;13444;50.562;7.262;2022-12-29T08:00:30;1.65;;;0.60;;
25549;SDS011;13444;50.562;7.262;2022-12-29T08:02:56;0.60;;;0.50;;
25549;SDS011;13444;50.562;7.262;2022-12-29T08:05:21;1.23;;;0.60;;
25549;SDS011;13444;50.562;7.262;2022-12-29T08:07:47;2.95;;;0.68;;
25549;SDS011;13444;50.562;7.262;2022-12-29T08:10:13;2.83;;;0.68;;
25549;SDS011;13444;50.562;7.262;2022-12-29T08:12:39;1.92;;;0.70;;
25549;SDS011;13444;50.562;7.262;2022-12-29T08:15:06;0.80;;;0.43;;
25549;SDS011;13444;50.562;7.262;2022-12-29T08:17:33;2.75;;;0.80;;
25549;SDS011;13444;50.562;7.262;2022-12-29T08:19:58;4.00;;;0.70;;
25549;SDS011;13444;50.562;7.262;2022-12-29T08:22:24;3.00;;;0.68;;
25549;SDS011;13444;50.562;7.262;2022-12-29T08:24:50;1.70;;;0.60;;
25549;SDS011;13444;50.562;7.262;2022-12-29T08:27:16;3.20;;;0.60;;
25549;SDS011;13444;50.562;7.262;2022-12-29T08:29:43;2.33;;;0.65;;
25549;SDS011;13444;50.562;7.262;2022-12-29T08:32:09;3.35;;;1.42;;
25549;SDS011;13444;50.562;7.262;2022-12-29T08:34:35;2.78;;;1.27;;
25549;SDS011;13444;50.562;7.262;2022-12-29T08:37:00;3.00;;;0.75;;
25549;SDS011;13444;50.562;7.262;2022-12-29T08:39:26;3.92;;;1.00;;
25549;SDS011;13444;50.562;7.262;2022-12-29T08:41:52;1.90;;;0.85;;
25549;SDS011;13444;50.562;7.262;2022-12-29T08:44:17;2.20;;;0.90;;
25549;SDS011;13444;50.562;7.262;2022-12-29T08:46:43;4.28;;;0.95;;
25549;SDS011;13444;50.562;7.262;2022-12-29T08:49:08;5.47;;;1.55;;
25549;SDS011;13444;50.562;7.262;2022-12-29T08:51:34;2.03;;;1.00;;
25549;SDS011;13444;50.562;7.262;2022-12-29T08:53:59;2.10;;;0.80;;
25549;SDS011;13444;50.562;7.262;2022-12-29T08:56:25;3.92;;;1.38;;
25549;SDS011;13444;50.562;7.262;2022-12-29T08:58:51;3.50;;;0.80;;
25549;SDS011;13444;50.562;7.262;2022-12-29T09:01:17;4.80;;;1.10;;
25549;SDS011;13444;50.562;7.262;2022-12-29T09:03:43;2.70;;;1.10;;
25549;SDS011;13444;50.562;7.262;2022-12-29T09:06:08;2.65;;;1.10;;
25549;SDS011;13444;50.562;7.262;2022-12-29T09:08:35;2.75;;;0.88;;
25549;SDS011;13444;50.562;7.262;2022-12-29T09:11:07;3.50;;;0.90;;
25549;SDS011;13444;50.562;7.262;2022-12-29T09:13:38;2.38;;;1.00;;
25549;SDS011;13444;50.562;7.262;2022-12-29T09:16:03;1.90;;;0.88;;
25549;SDS011;13444;50.562;7.262;2022-12-29T09:18:29;9.10;;;0.90;;
25549;SDS011;13444;50.562;7.262;2022-12-29T09:20:59;3.60;;;0.98;;
25549;SDS011;13444;50.562;7.262;2022-12-29T09:23:26;3.15;;;0.90;;
25549;SDS011;13444;50.562;7.262;2022-12-29T09:25:52;4.03;;;1.20;;
25549;SDS011;13444;50.562;7.262;2022-12-29T09:28:18;4.43;;;0.95;;
25549;SDS011;13444;50.562;7.262;2022-12-29T09:30:44;4.07;;;0.88;;
25549;SDS011;13444;50.562;7.262;2022-12-29T09:33:10;3.10;;;0.90;;
25549;SDS011;13444;50.562;7.262;2022-12-29T09:35:35;5.63;;;1.08;;
25549;SDS011;13444;50.562;7.262;2022-12-29T09:38:01;5.00;;;1.10;;
25549;SDS011;13444;50.562;7.262;2022-12-29T09:40:28;5.05;;;0.93;;
25549;SDS011;13444;50.562;7.262;2022-12-29T09:43:02;2.78;;;1.10;;
25549;SDS011;13444;50.562;7.262;2022-12-29T09:45:40;4.05;;;0.88;;
25549;SDS011;13444;50.562;7.262;2022-12-29T09:48:31;2.05;;;0.85;;
25549;SDS011;13444;50.562;7.262;2022-12-29T09:50:59;3.33;;;1.30;;
25549;SDS011;13444;50.562;7.262;2022-12-29T09:53:32;5.38;;;1.10;;
25549;SDS011;13444;50.562;7.262;2022-12-29T09:56:03;3.00;;;0.85;;
25549;SDS011;13444;50.562;7.262;2022-12-29T09:58:34;3.53;;;0.98;;
25549;SDS011;13444;50.562;7.262;2022-12-29T10:01:49;4.03;;;1.10;;
25549;SDS011;13444;50.562;7.262;2022-12-29T10:03:59;5.35;;;1.00;;
25549;SDS011;13444;50.562;7.262;2022-12-29T10:09:58;5.95;;;1.17;;
25549;SDS011;13444;50.562;7.262;2022-12-29T10:12:36;3.42;;;1.15;;
25549;SDS011;13444;50.562;7.262;2022-12-29T10:17:48;4.28;;;1.50;;
25549;SDS011;13444;50.562;7.262;2022-12-29T10:23:25;3.72;;;1.17;;
25549;SDS011;13444;50.562;7.262;2022-12-29T10:25:55;3.95;;;1.27;;
25549;SDS011;13444;50.562;7.262;2022-12-29T10:28:23;1.83;;;0.98;;
25549;SDS011;13444;50.562;7.262;2022-12-29T10:30:58;5.93;;;1.65;;
25549;SDS011;13444;50.562;7.262;2022-12-29T10:33:29;4.30;;;1.15;;
25549;SDS011;13444;50.562;7.262;2022-12-29T10:36:01;2.70;;;1.20;;
25549;SDS011;13444;50.562;7.262;2022-12-29T10:38:51;3.13;;;0.90;;
25549;SDS011;13444;50.562;7.262;2022-12-29T10:42:01;3.13;;;1.15;;
25549;SDS011;13444;50.562;7.262;2022-12-29T10:44:23;3.70;;;1.15;;
25549;SDS011;13444;50.562;7.262;2022-12-29T10:47:00;4.75;;;1.20;;
25549;SDS011;13444;50.562;7.262;2022-12-29T10:49:32;2.83;;;1.13;;
25549;SDS011;13444;50.562;7.262;2022-12-29T10:52:02;5.93;;;1.27;;
25549;SDS011;13444;50.562;7.262;2022-12-29T10:54:30;3.97;;;0.90;;
25549;SDS011;13444;50.562;7.262;2022-12-29T10:57:04;5.80;;;1.73;;
25549;SDS011;13444;50.562;7.262;2022-12-29T10:59:36;2.50;;;1.20;;
25549;SDS011;13444;50.562;7.262;2022-12-29T11:07:29;4.97;;;1.00;;
25549;SDS011;13444;50.562;7.262;2022-12-29T11:09:55;3.70;;;1.10;;
25549;SDS011;13444;50.562;7.262;2022-12-29T11:12:42;4.00;;;1.30;;
25549;SDS011;13444;50.562;7.262;2022-12-29T11:15:24;2.65;;;1.27;;
25549;SDS011;13444;50.562;7.262;2022-12-29T11:17:51;3.72;;;1.33;;
25549;SDS011;13444;50.562;7.262;2022-12-29T11:22:53;4.88;;;1.48;;
25549;SDS011;13444;50.562;7.262;2022-12-29T11:25:18;4.20;;;1.10;;
25549;SDS011;13444;50.562;7.262;2022-12-29T11:28:04;3.92;;;1.08;;
25549;SDS011;13444;50.562;7.262;2022-12-29T11:30:40;4.03;;;1.08;;
25549;SDS011;13444;50.562;7.262;2022-12-29T11:33:06;6.68;;;1.50;;
25549;SDS011;13444;50.562;7.262;2022-12-29T11:35:33;3.65;;;1.23;;
25549;SDS011;13444;50.562;7.262;2022-12-29T11:38:00;2.50;;;0.90;;
25549;SDS011;13444;50.562;7.262;2022-12-29T11:40:27;4.40;;;1.35;;
25549;SDS011;13444;50.562;7.262;2022-12-29T11:48:01;2.13;;;1.02;;
25549;SDS011;13444;50.562;7.262;2022-12-29T11:50:40;6.20;;;1.50;;
25549;SDS011;13444;50.562;7.262;2022-12-29T11:55:54;4.03;;;1.33;;
25549;SDS011;13444;50.562;7.262;2022-12-29T11:58:29;5.97;;;1.55;;
25549;SDS011;13444;50.562;7.262;2022-12-29T12:01:03;5.60;;;1.55;;
25549;SDS011;13444;50.562;7.262;2022-12-29T12:03:42;9.48;;;1.80;;
25549;SDS011;13444;50.562;7.262;2022-12-29T12:06:16;5.55;;;1.33;;
25549;SDS011;13444;50.562;7.262;2022-12-29T12:08:53;6.90;;;1.95;;
25549;SDS011;13444;50.562;7.262;2022-12-29T12:11:25;3.83;;;1.08;;
25549;SDS011;13444;50.562;7.262;2022-12-29T12:14:05;7.82;;;1.98;;
25549;SDS011;13444;50.562;7.262;2022-12-29T12:16:37;4.95;;;1.27;;
25549;SDS011;13444;50.562;7.262;2022-12-29T12:19:15;6.00;;;1.27;;
25549;SDS011;13444;50.562;7.262;2022-12-29T12:21:52;4.95;;;1.65;;
25549;SDS011;13444;50.562;7.262;2022-12-29T12:24:32;3.90;;;1.20;;
25549;SDS011;13444;50.562;7.262;2022-12-29T12:27:01;5.43;;;1.30;;
25549;SDS011;13444;50.562;7.262;2022-12-29T12:35:11;7.22;;;1.50;;
25549;SDS011;13444;50.562;7.262;2022-12-29T12:37:42;4.07;;;1.27;;
25549;SDS011;13444;50.562;7.262;2022-12-29T12:43:37;4.35;;;1.50;;
25549;SDS011;13444;50.562;7.262;2022-12-29T12:52:10;8.00;;;2.08;;
25549;SDS011;13444;50.562;7.262;2022-12-29T12:55:02;6.75;;;1.20;;
25549;SDS011;13444;50.562;7.262;2022-12-29T13:00:34;6.57;;;1.60;;
25549;SDS011;13444;50.562;7.262;2022-12-29T13:03:17;3.95;;;1.35;;
25549;SDS011;13444;50.562;7.262;2022-12-29T13:11:34;6.97;;;1.20;;
25549;SDS011;13444;50.562;7.262;2022-12-29T13:19:59;7.38;;;1.55;;
25549;SDS011;13444;50.562;7.262;2022-12-29T13:22:54;5.18;;;1.33;;
25549;SDS011;13444;50.562;7.262;2022-12-29T13:25:39;4.68;;;1.10;;
25549;SDS011;13444;50.562;7.262;2022-12-29T13:28:28;3.75;;;1.23;;
25549;SDS011;13444;50.562;7.262;2022-12-29T13:31:00;7.35;;;1.23;;
25549;SDS011;13444;50.562;7.262;2022-12-29T13:36:49;6.97;;;1.40;;
25549;SDS011;13444;50.562;7.262;2022-12-29T13:39:23;2.97;;;1.30;;
25549;SDS011;13444;50.562;7.262;2022-12-29T13:41:51;6.43;;;1.50;;
25549;SDS011;13444;50.562;7.262;2022-12-29T13:46:50;5.28;;;1.33;;
25549;SDS011;13444;50.562;7.262;2022-12-29T13:51:48;6.07;;;1.67;;
25549;SDS011;13444;50.562;7.262;2022-12-29T13:54:35;4.78;;;1.35;;
25549;SDS011;13444;50.562;7.262;2022-12-29T13:57:35;6.10;;;1.50;;
25549;SDS011;13444;50.562;7.262;2022-12-29T14:00:18;4.70;;;1.45;;
25549;SDS011;13444;50.562;7.262;2022-12-29T14:07:42;6.25;;;1.15;;
25549;SDS011;13444;50.562;7.262;2022-12-29T14:10:31;5.22;;;1.40;;
25549;SDS011;13444;50.562;7.262;2022-12-29T14:15:41;5.45;;;1.50;;
25549;SDS011;13444;50.562;7.262;2022-12-29T14:18:14;4.30;;;1.45;;
25549;SDS011;13444;50.562;7.262;2022-12-29T14:20:54;7.22;;;2.03;;
25549;SDS011;13444;50.562;7.262;2022-12-29T14:23:26;8.30;;;2.95;;
25549;SDS011;13444;50.562;7.262;2022-12-29T14:26:13;5.30;;;2.05;;
25549;SDS011;13444;50.562;7.262;2022-12-29T14:28:48;5.13;;;1.33;;
25549;SDS011;13444;50.562;7.262;2022-12-29T14:33:40;3.55;;;1.60;;
25549;SDS011;13444;50.562;7.262;2022-12-29T14:36:25;3.60;;;1.10;;
25549;SDS011;13444;50.562;7.262;2022-12-29T14:38:58;7.55;;;1.73;;
25549;SDS011;13444;50.562;7.262;2022-12-29T14:41:35;4.95;;;1.60;;
25549;SDS011;13444;50.562;7.262;2022-12-29T14:46:42;6.63;;;1.75;;
25549;SDS011;13444;50.562;7.262;2022-12-29T14:49:18;8.77;;;2.08;;
25549;SDS011;13444;50.562;7.262;2022-12-29T14:51:46;14.27;;;1.58;;
25549;SDS011;13444;50.562;7.262;2022-12-29T14:57:01;7.78;;;1.58;;
25549;SDS011;13444;50.562;7.262;2022-12-29T14:59:29;5.13;;;1.30;;
25549;SDS011;13444;50.562;7.262;2022-12-29T15:01:57;5.93;;;1.40;;
25549;SDS011;13444;50.562;7.262;2022-12-29T15:04:25;6.03;;;1.30;;
25549;SDS011;13444;50.562;7.262;2022-12-29T15:06:56;3.78;;;1.48;;
25549;SDS011;13444;50.562;7.262;2022-12-29T15:09:35;7.53;;;2.40;;
25549;SDS011;13444;50.562;7.262;2022-12-29T15:12:17;7.10;;;1.75;;
25549;SDS011;13444;50.562;7.262;2022-12-29T15:14:52;5.10;;;1.50;;
25549;SDS011;13444;50.562;7.262;2022-12-29T15:19:51;6.28;;;1.90;;
25549;SDS011;13444;50.562;7.262;2022-12-29T15:22:17;3.22;;;1.17;;
25549;SDS011;13444;50.562;7.262;2022-12-29T15:24:43;8.02;;;2.22;;
25549;SDS011;13444;50.562;7.262;2022-12-29T15:27:15;7.20;;;1.67;;
25549;SDS011;13444;50.562;7.262;2022-12-29T15:29:44;8.68;;;1.92;;
25549;SDS011;13444;50.562;7.262;2022-12-29T15:32:21;5.10;;;1.27;;
25549;SDS011;13444;50.562;7.262;2022-12-29T15:34:50;6.05;;;1.83;;
25549;SDS011;13444;50.562;7.262;2022-12-29T15:37:22;5.85;;;1.60;;
25549;SDS011;13444;50.562;7.262;2022-12-29T15:39:51;6.30;;;1.90;;
25549;SDS011;13444;50.562;7.262;2022-12-29T15:42:23;8.05;;;2.10;;
25549;SDS011;13444;50.562;7.262;2022-12-29T15:45:13;6.35;;;2.13;;
25549;SDS011;13444;50.562;7.262;2022-12-29T15:47:40;8.77;;;2.17;;
25549;SDS011;13444;50.562;7.262;2022-12-29T15:50:12;9.30;;;2.70;;
25549;SDS011;13444;50.562;7.262;2022-12-29T15:52:42;7.20;;;2.10;;
25549;SDS011;13444;50.562;7.262;2022-12-29T15:55:17;5.07;;;1.58;;
25549;SDS011;13444;50.562;7.262;2022-12-29T15:57:49;6.50;;;1.40;;
25549;SDS011;13444;50.562;7.262;2022-12-29T16:00:21;9.00;;;1.27;;
25549;SDS011;13444;50.562;7.262;2022-12-29T16:02:50;6.88;;;1.75;;
25549;SDS011;13444;50.562;7.262;2022-12-29T16:05:17;8.52;;;2.95;;
25549;SDS011;13444;50.562;7.262;2022-12-29T16:07:54;5.85;;;2.60;;
25549;SDS011;13444;50.562;7.262;2022-12-29T16:10:25;11.13;;;3.03;;
25549;SDS011;13444;50.562;7.262;2022-12-29T16:12:51;11.18;;;4.25;;
25549;SDS011;13444;50.562;7.262;2022-12-29T16:15:16;14.75;;;5.55;;
25549;SDS011;13444;50.562;7.262;2022-12-29T16:17:46;8.77;;;3.13;;
25549;SDS011;13444;50.562;7.262;2022-12-29T16:20:17;4.93;;;1.95;;
25549;SDS011;13444;50.562;7.262;2022-12-29T16:22:46;4.95;;;1.52;;
25549;SDS011;13444;50.562;7.262;2022-12-29T16:27:52;7.53;;;1.73;;
25549;SDS011;13444;50.562;7.262;2022-12-29T16:30:24;5.35;;;2.10;;
25549;SDS011;13444;50.562;7.262;2022-12-29T16:32:53;12.82;;;3.75;;
25549;SDS011;13444;50.562;7.262;2022-12-29T16:35:24;5.22;;;1.88;;
25549;SDS011;13444;50.562;7.262;2022-12-29T16:40:49;9.88;;;2.92;;
25549;SDS011;13444;50.562;7.262;2022-12-29T16:46:21;7.88;;;2.33;;
25549;SDS011;13444;50.562;7.262;2022-12-29T16:48:53;5.88;;;1.80;;
25549;SDS011;13444;50.562;7.262;2022-12-29T16:51:30;7.63;;;1.92;;
25549;SDS011;13444;50.562;7.262;2022-12-29T16:53:57;8.70;;;1.95;;
25549;SDS011;13444;50.562;7.262;2022-12-29T16:56:24;8.82;;;1.77;;
25549;SDS011;13444;50.562;7.262;2022-12-29T16:58:58;10.07;;;2.35;;
25549;SDS011;13444;50.562;7.262;2022-12-29T17:01:37;9.05;;;1.75;;
25549;SDS011;13444;50.562;7.262;2022-12-29T17:04:10;9.90;;;2.20;;
25549;SDS011;13444;50.562;7.262;2022-12-29T17:06:38;7.93;;;2.83;;
25549;SDS011;13444;50.562;7.262;2022-12-29T17:09:17;11.23;;;2.88;;
25549;SDS011;13444;50.562;7.262;2022-12-29T17:11:48;11.00;;;3.10;;